createdAt,value
2022-12-25T00:00:53.963Z,329
2022-12-25T00:03:00.870Z,329
2022-12-25T00:05:07.159Z,329
2022-12-25T00:07:13.266Z,329
2022-12-25T00:09:19.668Z,329
2022-12-25T00:11:27.727Z,329
2022-12-25T00:13:33.870Z,329
2022-12-25T00:15:43.549Z,329
2022-12-25T00:17:49.233Z,329
2022-12-25T00:19:59.702Z,329
2022-12-25T00:22:05.553Z,329
2022-12-25T00:24:12.049Z,329
2022-12-25T00:26:19.289Z,329
2022-12-25T00:28:25.631Z,329
2022-12-25T00:30:31.685Z,329
2022-12-25T00:32:39.168Z,329
2022-12-25T00:34:44.736Z,329
2022-12-25T00:36:52.695Z,329
2022-12-25T00:39:02.415Z,329
2022-12-25T00:41:11.983Z,329
2022-12-25T00:43:17.373Z,329
2022-12-25T00:45:22.988Z,329
2022-12-25T00:47:29.691Z,329
2022-12-25T00:49:37.394Z,329
2022-12-25T00:51:44.288Z,329
2022-12-25T00:53:52.900Z,329
2022-12-25T00:55:58.140Z,329
2022-12-25T00:58:03.807Z,329
2022-12-25T01:00:09.728Z,329
2022-12-25T01:02:18.456Z,329
2022-12-25T01:04:24.264Z,329
2022-12-25T01:06:29.891Z,329
2022-12-25T01:08:39.309Z,329
2022-12-25T01:10:46.307Z,329
2022-12-25T01:12:52.855Z,329
2022-12-25T01:15:00.477Z,329
2022-12-25T01:17:06.127Z,329
2022-12-25T01:19:14.634Z,329
2022-12-25T01:21:20.072Z,329
2022-12-25T01:23:25.714Z,329
2022-12-25T01:25:31.008Z,329
2022-12-25T01:27:37.293Z,329
2022-12-25T01:29:42.580Z,329
2022-12-25T01:31:48.950Z,329
2022-12-25T01:34:15.482Z,329
2022-12-25T01:36:21.745Z,329
2022-12-25T01:38:27.208Z,329
2022-12-25T01:40:32.405Z,329
2022-12-25T01:42:40.345Z,329
2022-12-25T01:44:48.515Z,329
2022-12-25T01:46:54.870Z,329
2022-12-25T01:49:08.269Z,329
2022-12-25T01:51:13.841Z,329
2022-12-25T01:53:42.377Z,329
2022-12-25T01:55:47.894Z,329
2022-12-25T01:57:56.693Z,329
2022-12-25T02:00:04.623Z,329
2022-12-25T02:02:18.841Z,329
2022-12-25T02:04:26.476Z,329
2022-12-25T02:06:40.944Z,329
2022-12-25T02:08:46.457Z,329
2022-12-25T02:10:51.680Z,329
2022-12-25T02:12:58.347Z,329
2022-12-25T02:15:08.233Z,329
2022-12-25T02:17:16.326Z,329
2022-12-25T02:19:22.069Z,329
2022-12-25T02:21:27.372Z,329
2022-12-25T02:23:33.019Z,329
2022-12-25T02:25:38.588Z,329
2022-12-25T02:27:49.678Z,330
2022-12-25T02:29:57.005Z,329
2022-12-25T02:32:08.236Z,329
2022-12-25T02:34:13.801Z,329
2022-12-25T02:36:21.226Z,329
2022-12-25T02:38:26.971Z,329
2022-12-25T02:40:32.599Z,330
2022-12-25T02:42:38.010Z,329
2022-12-25T02:44:43.977Z,329
2022-12-25T02:46:49.474Z,329
2022-12-25T02:48:55.653Z,329
2022-12-25T02:51:02.657Z,329
2022-12-25T02:53:07.903Z,329
2022-12-25T02:55:17.025Z,329
2022-12-25T02:57:31.314Z,330
2022-12-25T02:59:39.737Z,329
2022-12-25T03:01:46.178Z,329
2022-12-25T03:03:51.999Z,330
2022-12-25T03:05:59.072Z,329
2022-12-25T03:08:07.863Z,330
2022-12-25T03:10:13.238Z,330
2022-12-25T03:12:18.867Z,330
2022-12-25T03:14:24.219Z,330
2022-12-25T03:16:35.135Z,330
2022-12-25T03:18:40.832Z,330
2022-12-25T03:20:47.423Z,329
2022-12-25T03:22:52.790Z,330
2022-12-25T03:24:58.327Z,330
2022-12-25T03:27:03.819Z,330
2022-12-25T03:29:10.102Z,330
2022-12-25T03:31:20.347Z,329
2022-12-25T03:33:47.512Z,330
2022-12-25T03:35:53.080Z,330
2022-12-25T03:38:00.348Z,330
2022-12-25T03:40:06.911Z,330
2022-12-25T03:42:13.952Z,330
2022-12-25T03:44:19.358Z,330
2022-12-25T03:46:25.139Z,330
2022-12-25T03:48:51.318Z,330
2022-12-25T03:50:57.040Z,330
2022-12-25T03:53:07.796Z,330
2022-12-25T03:55:17.661Z,330
2022-12-25T03:57:22.846Z,330
2022-12-25T03:59:36.140Z,330
2022-12-25T04:01:48.953Z,330
2022-12-25T04:04:15.316Z,330
2022-12-25T04:06:23.429Z,330
2022-12-25T04:08:28.947Z,330
2022-12-25T04:10:44.052Z,330
2022-12-25T04:12:49.413Z,330
2022-12-25T04:14:54.673Z,330
2022-12-25T04:17:00.223Z,330
2022-12-25T04:19:08.009Z,330
2022-12-25T04:21:34.465Z,330
2022-12-25T04:23:46.195Z,330
2022-12-25T04:26:36.450Z,330
2022-12-25T04:28:44.787Z,330
2022-12-25T04:30:56.209Z,330
2022-12-25T04:33:22.260Z,330
2022-12-25T04:35:48.350Z,330
2022-12-25T04:38:31.605Z,330
2022-12-25T04:44:09.430Z,330
2022-12-25T04:49:06.731Z,330
2022-12-25T04:51:54.325Z,330
2022-12-25T04:54:05.380Z,330
2022-12-25T04:56:11.094Z,330
2022-12-25T04:58:19.092Z,330
2022-12-25T05:00:28.790Z,330
2022-12-25T05:02:38.117Z,330
2022-12-25T05:04:49.323Z,330
2022-12-25T05:06:56.047Z,330
2022-12-25T05:09:01.338Z,330
2022-12-25T05:11:07.970Z,330
2022-12-25T05:13:17.972Z,330
2022-12-25T05:15:26.623Z,330
2022-12-25T05:17:32.041Z,330
2022-12-25T05:19:40.569Z,330
2022-12-25T05:21:45.973Z,330
2022-12-25T05:23:57.005Z,330
2022-12-25T05:26:02.737Z,330
2022-12-25T05:28:09.032Z,330
2022-12-25T05:30:18.055Z,330
2022-12-25T05:32:23.670Z,330
2022-12-25T05:34:29.123Z,330
2022-12-25T05:36:34.769Z,330
2022-12-25T05:38:40.041Z,330
2022-12-25T05:40:45.482Z,330
2022-12-25T05:42:51.834Z,330
2022-12-25T05:44:58.459Z,330
2022-12-25T05:47:03.986Z,330
2022-12-25T05:49:09.492Z,330
2022-12-25T05:51:15.193Z,330
2022-12-25T05:53:20.915Z,330
2022-12-25T05:55:27.241Z,330
2022-12-25T05:57:32.823Z,330
2022-12-25T05:59:38.371Z,331
2022-12-25T06:01:44.488Z,330
2022-12-25T06:03:51.543Z,330
2022-12-25T06:05:57.120Z,331
2022-12-25T06:08:02.854Z,330
2022-12-25T06:10:14.097Z,331
2022-12-25T06:12:19.587Z,331
2022-12-25T06:14:28.168Z,331
2022-12-25T06:16:40.897Z,330
2022-12-25T06:18:46.897Z,331
2022-12-25T06:20:55.774Z,331
2022-12-25T06:23:22.533Z,331
2022-12-25T06:25:28.392Z,331
2022-12-25T06:27:55.559Z,331
2022-12-25T06:30:02.051Z,330
2022-12-25T06:32:10.548Z,331
2022-12-25T06:34:36.420Z,330
2022-12-25T06:36:43.213Z,331
2022-12-25T06:38:49.482Z,331
2022-12-25T06:40:54.775Z,331
2022-12-25T06:43:00.458Z,331
2022-12-25T06:45:06.716Z,331
2022-12-25T06:47:11.899Z,331
2022-12-25T06:49:16.989Z,331
2022-12-25T06:51:23.740Z,331
2022-12-25T06:53:37.264Z,331
2022-12-25T06:55:45.862Z,331
2022-12-25T06:57:52.209Z,331
2022-12-25T06:59:58.219Z,331
2022-12-25T07:02:04.303Z,331
2022-12-25T07:04:09.775Z,331
2022-12-25T07:06:15.171Z,331
2022-12-25T07:08:24.473Z,331
2022-12-25T07:10:30.400Z,331
2022-12-25T07:12:36.468Z,331
2022-12-25T07:14:41.975Z,331
2022-12-25T07:16:50.353Z,331
2022-12-25T07:18:57.221Z,331
2022-12-25T07:21:02.570Z,331
2022-12-25T07:23:08.050Z,331
2022-12-25T07:25:13.330Z,331
2022-12-25T07:27:18.949Z,331
2022-12-25T07:29:24.846Z,331
2022-12-25T07:31:30.498Z,331
2022-12-25T07:33:36.412Z,331
2022-12-25T07:35:42.471Z,331
2022-12-25T07:37:48.358Z,331
2022-12-25T07:39:57.146Z,331
2022-12-25T07:42:03.853Z,331
2022-12-25T07:44:09.635Z,331
2022-12-25T07:46:17.229Z,331
2022-12-25T07:48:23.258Z,331
2022-12-25T07:50:31.798Z,331
2022-12-25T07:52:45.820Z,331
2022-12-25T07:54:52.678Z,331
2022-12-25T07:56:59.065Z,331
2022-12-25T07:59:14.511Z,331
2022-12-25T08:01:21.933Z,331
2022-12-25T08:03:32.207Z,331
2022-12-25T08:05:39.923Z,331
2022-12-25T08:07:46.071Z,331
2022-12-25T08:10:00.848Z,331
2022-12-25T08:12:13.208Z,331
2022-12-25T08:14:18.999Z,331
2022-12-25T08:16:25.610Z,331
2022-12-25T08:18:33.456Z,331
2022-12-25T08:20:39.458Z,331
2022-12-25T08:22:46.979Z,331
2022-12-25T08:24:53.890Z,331
2022-12-25T08:27:21.187Z,331
2022-12-25T08:29:27.252Z,331
2022-12-25T08:31:44.204Z,331
2022-12-25T08:33:52.391Z,331
2022-12-25T08:35:58.765Z,331
2022-12-25T08:38:05.001Z,331
2022-12-25T08:40:11.669Z,331
2022-12-25T08:42:17.789Z,331
2022-12-25T08:44:24.779Z,331
2022-12-25T08:46:31.466Z,331
2022-12-25T08:48:38.253Z,331
2022-12-25T08:50:44.731Z,331
2022-12-25T08:52:50.772Z,331
2022-12-25T08:54:57.496Z,332
2022-12-25T08:57:06.038Z,331
2022-12-25T08:59:12.273Z,331
2022-12-25T09:01:18.883Z,331
2022-12-25T09:03:25.671Z,331
2022-12-25T09:05:31.986Z,333
2022-12-25T09:07:38.313Z,331
2022-12-25T09:09:44.755Z,332
2022-12-25T09:11:50.847Z,332
2022-12-25T09:13:56.712Z,331
2022-12-25T09:16:04.833Z,331
2022-12-25T09:18:10.770Z,332
2022-12-25T09:20:17.046Z,333
2022-12-25T09:22:26.078Z,333
2022-12-25T09:24:31.855Z,331
2022-12-25T09:26:38.112Z,333
2022-12-25T09:28:54.395Z,332
2022-12-25T09:31:00.532Z,333
2022-12-25T09:33:06.750Z,333
2022-12-25T09:35:13.274Z,332
2022-12-25T09:37:19.433Z,333
2022-12-25T09:39:25.850Z,333
2022-12-25T09:41:32.395Z,333
2022-12-25T09:43:38.520Z,333
2022-12-25T09:46:02.530Z,332
2022-12-25T09:48:09.056Z,332
2022-12-25T09:50:15.107Z,333
2022-12-25T09:52:21.709Z,333
2022-12-25T09:54:28.250Z,334
2022-12-25T09:56:35.322Z,333
2022-12-25T09:58:41.853Z,334
2022-12-25T10:01:09.292Z,333
2022-12-25T10:03:20.563Z,334
2022-12-25T10:05:50.218Z,333
2022-12-25T10:07:56.739Z,333
2022-12-25T10:10:04.469Z,334
2022-12-25T10:12:10.705Z,333
2022-12-25T10:14:20.452Z,334
2022-12-25T10:16:27.048Z,334
2022-12-25T10:18:33.803Z,333
2022-12-25T10:20:42.850Z,334
2022-12-25T10:22:49.451Z,334
2022-12-25T10:24:55.802Z,334
2022-12-25T10:27:02.173Z,334
2022-12-25T10:29:08.450Z,334
2022-12-25T10:31:15.182Z,333
2022-12-25T10:33:21.393Z,334
2022-12-25T10:35:27.629Z,333
2022-12-25T10:37:34.240Z,333
2022-12-25T10:39:48.830Z,334
2022-12-25T10:41:55.134Z,334
2022-12-25T10:44:01.587Z,334
2022-12-25T10:46:09.286Z,334
2022-12-25T10:48:16.639Z,334
2022-12-25T10:50:23.082Z,334
2022-12-25T10:52:29.923Z,334
2022-12-25T10:54:36.811Z,334
2022-12-25T10:56:46.637Z,334
2022-12-25T10:58:54.409Z,334
2022-12-25T11:01:01.619Z,334
2022-12-25T11:03:09.637Z,334
2022-12-25T11:05:17.183Z,334
2022-12-25T11:07:23.557Z,334
2022-12-25T11:09:30.202Z,334
2022-12-25T11:11:36.899Z,334
2022-12-25T11:13:43.558Z,334
2022-12-25T11:15:51.127Z,334
2022-12-25T11:17:57.598Z,334
2022-12-25T11:20:04.124Z,334
2022-12-25T11:22:11.712Z,334
2022-12-25T11:24:19.132Z,334
2022-12-25T11:26:25.879Z,334
2022-12-25T11:28:32.722Z,334
2022-12-25T11:30:39.585Z,334
2022-12-25T11:32:50.251Z,334
2022-12-25T11:34:56.983Z,334
2022-12-25T11:37:03.443Z,334
2022-12-25T11:39:09.886Z,334
2022-12-25T11:41:17.001Z,334
2022-12-25T11:43:24.495Z,334
2022-12-25T11:45:30.735Z,334
2022-12-25T11:47:36.969Z,334
2022-12-25T11:49:53.933Z,334
2022-12-25T11:52:06.897Z,334
2022-12-25T11:54:13.240Z,334
2022-12-25T11:56:20.145Z,334
2022-12-25T11:58:29.545Z,334
2022-12-25T12:00:35.610Z,334
2022-12-25T12:02:46.536Z,334
2022-12-25T12:04:57.333Z,334
2022-12-25T12:07:03.809Z,334
2022-12-25T12:09:11.138Z,334
2022-12-25T12:11:18.992Z,334
2022-12-25T12:13:26.075Z,334
2022-12-25T12:15:32.281Z,334
2022-12-25T12:17:39.917Z,334
2022-12-25T12:19:46.206Z,334
2022-12-25T12:21:52.485Z,334
2022-12-25T12:23:59.223Z,334
2022-12-25T12:26:06.073Z,334
2022-12-25T12:28:12.770Z,334
2022-12-25T12:30:20.484Z,334
2022-12-25T12:32:27.152Z,334
2022-12-25T12:34:33.519Z,334
2022-12-25T12:36:40.382Z,334
2022-12-25T12:38:46.582Z,334
2022-12-25T12:40:53.336Z,334
2022-12-25T12:42:59.734Z,336
2022-12-25T12:45:06.066Z,336
2022-12-25T12:47:12.245Z,334
2022-12-25T12:49:19.477Z,334
2022-12-25T12:51:25.896Z,336
2022-12-25T12:53:32.237Z,336
2022-12-25T12:55:38.507Z,336
2022-12-25T12:57:44.471Z,334
2022-12-25T12:59:50.646Z,334
2022-12-25T13:01:57.665Z,334
2022-12-25T13:04:04.221Z,336
2022-12-25T13:06:10.521Z,334
2022-12-25T13:08:18.026Z,336
2022-12-25T13:10:24.360Z,336
2022-12-25T13:12:30.388Z,334
2022-12-25T13:14:36.833Z,336
2022-12-25T13:16:43.484Z,336
2022-12-25T13:18:49.479Z,336
2022-12-25T13:20:55.737Z,334
2022-12-25T13:23:02.024Z,336
2022-12-25T13:27:51.289Z,336
2022-12-25T13:29:57.562Z,336
2022-12-25T13:34:57.157Z,336
2022-12-25T13:37:04.005Z,336
2022-12-25T13:39:10.092Z,336
2022-12-25T13:41:16.404Z,334
2022-12-25T13:43:23.243Z,336
2022-12-25T13:45:30.160Z,336
2022-12-25T13:47:36.957Z,336
2022-12-25T13:49:43.383Z,336
2022-12-25T13:51:53.549Z,336
2022-12-25T13:53:59.733Z,336
2022-12-25T13:56:06.336Z,336
2022-12-25T13:58:12.984Z,336
2022-12-25T14:00:33.775Z,336
2022-12-25T14:02:41.811Z,336
2022-12-25T14:04:50.712Z,336
2022-12-25T14:06:57.993Z,336
2022-12-25T14:09:04.320Z,336
2022-12-25T14:11:10.832Z,336
2022-12-25T14:13:17.070Z,336
2022-12-25T14:15:23.405Z,336
2022-12-25T14:17:29.587Z,336
2022-12-25T14:19:35.904Z,336
2022-12-25T14:21:42.146Z,336
2022-12-25T14:23:49.771Z,336
2022-12-25T14:25:56.216Z,336
2022-12-25T14:28:17.401Z,336
2022-12-25T14:30:26.419Z,336
2022-12-25T14:32:32.766Z,336
2022-12-25T14:34:39.210Z,336
2022-12-25T14:36:46.692Z,336
2022-12-25T14:38:54.436Z,336
2022-12-25T14:41:04.273Z,336
2022-12-25T14:43:10.597Z,336
2022-12-25T14:45:19.043Z,336
2022-12-25T14:47:26.121Z,336
2022-12-25T14:49:32.511Z,336
2022-12-25T14:51:38.983Z,336
2022-12-25T14:53:45.368Z,336
2022-12-25T14:59:02.721Z,336
2022-12-25T15:01:10.518Z,336
2022-12-25T15:03:17.936Z,336
2022-12-25T15:05:24.784Z,336
2022-12-25T15:07:31.326Z,336
2022-12-25T15:09:44.034Z,336
2022-12-25T15:11:50.628Z,336
2022-12-25T15:13:57.165Z,336
2022-12-25T15:16:03.854Z,336
2022-12-25T15:18:10.791Z,336
2022-12-25T15:20:17.240Z,336
2022-12-25T15:22:23.654Z,336
2022-12-25T15:24:30.184Z,336
2022-12-25T15:26:36.599Z,336
2022-12-25T15:28:42.999Z,336
2022-12-25T15:30:50.164Z,336
2022-12-25T15:32:58.204Z,336
2022-12-25T15:35:04.663Z,336
2022-12-25T15:37:14.371Z,336
2022-12-25T15:39:20.578Z,336
2022-12-25T15:41:27.451Z,336
2022-12-25T15:43:50.267Z,336
2022-12-25T15:45:57.938Z,336
2022-12-25T15:48:04.572Z,336
2022-12-25T15:50:11.104Z,336
2022-12-25T15:52:17.783Z,336
2022-12-25T15:54:24.468Z,336
2022-12-25T15:56:31.678Z,336
2022-12-25T15:59:00.109Z,336
2022-12-25T16:01:06.672Z,336
2022-12-25T16:03:16.734Z,336
2022-12-25T16:05:23.351Z,336
2022-12-25T16:07:32.077Z,336
2022-12-25T16:09:38.464Z,336
2022-12-25T16:11:45.145Z,336
2022-12-25T16:13:51.589Z,336
2022-12-25T16:15:59.529Z,336
2022-12-25T16:18:06.520Z,336
2022-12-25T16:20:13.074Z,336
2022-12-25T16:22:19.666Z,336
2022-12-25T16:24:27.464Z,337
2022-12-25T16:26:34.239Z,336
2022-12-25T16:28:40.917Z,336
2022-12-25T16:30:48.834Z,336
2022-12-25T16:32:55.279Z,336
2022-12-25T16:35:01.362Z,336
2022-12-25T16:37:07.810Z,336
2022-12-25T16:39:18.019Z,336
2022-12-25T16:41:23.953Z,336
2022-12-25T16:43:30.244Z,336
2022-12-25T16:45:37.513Z,336
2022-12-25T16:47:45.087Z,336
2022-12-25T16:49:53.375Z,336
2022-12-25T16:52:01.945Z,336
2022-12-25T16:54:11.834Z,337
2022-12-25T16:56:18.384Z,337
2022-12-25T16:58:26.495Z,337
2022-12-25T17:00:34.741Z,337
2022-12-25T17:02:43.368Z,336
2022-12-25T17:04:50.073Z,337
2022-12-25T17:06:58.958Z,337
2022-12-25T17:09:08.953Z,337
2022-12-25T17:11:16.244Z,337
2022-12-25T17:13:23.247Z,337
2022-12-25T17:15:30.119Z,337
2022-12-25T17:17:37.655Z,337
2022-12-25T17:22:04.451Z,337
2022-12-25T17:24:10.605Z,337
2022-12-25T17:26:33.066Z,337
2022-12-25T17:28:40.602Z,337
2022-12-25T17:30:54.945Z,337
2022-12-25T17:33:01.317Z,337
2022-12-25T17:35:16.755Z,337
2022-12-25T17:37:23.315Z,336
2022-12-25T17:39:29.570Z,337
2022-12-25T17:41:36.052Z,337
2022-12-25T17:43:42.724Z,337
2022-12-25T17:45:50.035Z,337
2022-12-25T17:47:56.829Z,337
2022-12-25T17:50:03.855Z,337
2022-12-25T17:52:13.583Z,337
2022-12-25T17:54:28.568Z,337
2022-12-25T17:56:39.082Z,337
2022-12-25T17:58:45.868Z,337
2022-12-25T18:00:53.155Z,337
2022-12-25T18:03:11.736Z,337
2022-12-25T18:05:19.455Z,337
2022-12-25T18:07:25.703Z,337
2022-12-25T18:09:32.801Z,337
2022-12-25T18:11:40.297Z,337
2022-12-25T18:13:46.752Z,337
2022-12-25T18:15:53.320Z,337
2022-12-25T18:18:01.842Z,337
2022-12-25T18:20:09.137Z,337
2022-12-25T18:22:16.535Z,337
2022-12-25T18:24:24.308Z,337
2022-12-25T18:26:31.393Z,337
2022-12-25T18:28:38.521Z,337
2022-12-25T18:30:45.500Z,337
2022-12-25T18:32:52.287Z,337
2022-12-25T18:34:59.283Z,337
2022-12-25T18:37:07.226Z,337
2022-12-25T18:39:14.673Z,337
2022-12-25T18:41:22.787Z,337
2022-12-25T18:43:58.484Z,337
2022-12-25T18:46:07.118Z,337
2022-12-25T18:48:17.304Z,337
2022-12-25T18:50:24.157Z,337
2022-12-25T18:52:55.771Z,337
2022-12-25T18:55:04.657Z,337
2022-12-25T18:57:14.848Z,337
2022-12-25T18:59:21.874Z,337
2022-12-25T19:01:30.609Z,337
2022-12-25T19:03:42.098Z,337
2022-12-25T19:05:48.807Z,337
2022-12-25T19:07:56.253Z,337
2022-12-25T19:10:03.403Z,337
2022-12-25T19:12:10.947Z,337
2022-12-25T19:14:18.207Z,337
2022-12-25T19:16:26.821Z,337
2022-12-25T19:18:33.310Z,337
2022-12-25T19:20:40.345Z,337
2022-12-25T19:22:46.913Z,337
2022-12-25T19:24:55.241Z,337
2022-12-25T19:27:03.629Z,337
2022-12-25T19:29:11.490Z,337
2022-12-25T19:31:22.060Z,337
2022-12-25T19:33:33.832Z,337
2022-12-25T19:35:41.252Z,337
2022-12-25T19:37:49.094Z,337
2022-12-25T19:39:56.771Z,337
2022-12-25T19:42:04.945Z,337
2022-12-25T19:44:13.196Z,337
2022-12-25T19:46:20.756Z,337
2022-12-25T19:48:29.213Z,337
2022-12-25T19:50:37.918Z,337
2022-12-25T19:52:48.229Z,337
2022-12-25T19:54:56.912Z,337
2022-12-25T19:57:04.753Z,337
2022-12-25T19:59:15.196Z,337
2022-12-25T20:01:30.159Z,337
2022-12-25T20:03:49.611Z,337
2022-12-25T20:05:57.990Z,337
2022-12-25T20:08:04.924Z,337
2022-12-25T20:10:12.603Z,337
2022-12-25T20:12:19.978Z,337
2022-12-25T20:14:32.776Z,337
2022-12-25T20:17:01.143Z,337
2022-12-25T20:19:08.754Z,337
2022-12-25T20:21:16.132Z,337
2022-12-25T20:23:23.121Z,337
2022-12-25T20:25:32.328Z,337
2022-12-25T20:27:40.003Z,337
2022-12-25T20:29:46.519Z,337
2022-12-25T20:31:55.580Z,337
2022-12-25T20:34:02.657Z,337
2022-12-25T20:36:09.571Z,337
2022-12-25T20:38:18.342Z,337
2022-12-25T20:40:25.957Z,337
2022-12-25T20:42:32.584Z,337
2022-12-25T20:44:38.927Z,337
2022-12-25T20:46:45.793Z,337
2022-12-25T20:48:53.227Z,337
2022-12-25T20:50:59.854Z,338
2022-12-25T20:53:07.376Z,337
2022-12-25T20:55:13.969Z,338
2022-12-25T20:57:20.635Z,337
2022-12-25T20:59:37.341Z,338
2022-12-25T21:01:44.963Z,337
2022-12-25T21:03:51.675Z,338
2022-12-25T21:05:59.668Z,338
2022-12-25T21:08:07.056Z,337
2022-12-25T21:10:13.445Z,337
2022-12-25T21:12:20.140Z,338
2022-12-25T21:14:26.532Z,338
2022-12-25T21:16:33.335Z,338
2022-12-25T21:18:39.674Z,338
2022-12-25T21:20:45.993Z,338
2022-12-25T21:22:52.887Z,338
2022-12-25T21:24:59.162Z,338
2022-12-25T21:27:05.662Z,338
2022-12-25T21:29:12.133Z,337
2022-12-25T21:31:19.116Z,338
2022-12-25T21:33:25.835Z,338
2022-12-25T21:35:31.962Z,338
2022-12-25T21:37:38.130Z,338
2022-12-25T21:39:44.311Z,337
2022-12-25T21:41:50.723Z,337
2022-12-25T21:43:56.925Z,338
2022-12-25T21:46:03.429Z,338
2022-12-25T21:48:10.030Z,338
2022-12-25T21:50:16.992Z,338
2022-12-25T21:52:23.083Z,337
2022-12-25T21:54:29.315Z,338
2022-12-25T21:56:45.834Z,337
2022-12-25T21:58:52.361Z,338
2022-12-25T22:00:58.784Z,338
2022-12-25T22:03:05.804Z,338
2022-12-25T22:05:12.469Z,338
2022-12-25T22:07:19.173Z,338
2022-12-25T22:09:25.825Z,338
2022-12-25T22:11:31.951Z,338
2022-12-25T22:13:37.947Z,338
2022-12-25T22:15:44.245Z,338
2022-12-25T22:17:50.648Z,338
2022-12-25T22:19:56.448Z,338
2022-12-25T22:22:02.782Z,338
2022-12-25T22:24:08.751Z,338
2022-12-25T22:26:22.684Z,338
2022-12-25T22:28:29.078Z,338
2022-12-25T22:30:35.619Z,338
2022-12-25T22:32:41.129Z,338
2022-12-25T22:34:46.602Z,338
2022-12-25T22:36:51.953Z,338
2022-12-25T22:38:58.006Z,338
2022-12-25T22:41:04.034Z,338
2022-12-25T22:43:09.981Z,338
2022-12-25T22:45:16.242Z,338
2022-12-25T22:47:22.687Z,338
2022-12-25T22:49:28.755Z,338
2022-12-25T22:51:34.254Z,338
2022-12-25T22:53:40.085Z,338
2022-12-25T22:55:46.400Z,338
2022-12-25T22:57:51.965Z,338
2022-12-25T22:59:58.000Z,338
2022-12-25T23:02:04.791Z,338
2022-12-25T23:04:11.302Z,338
2022-12-25T23:06:17.639Z,338
2022-12-25T23:08:23.539Z,338
2022-12-25T23:10:29.062Z,338
2022-12-25T23:12:34.988Z,338
2022-12-25T23:14:40.606Z,338
2022-12-25T23:16:46.505Z,338
2022-12-25T23:18:51.792Z,338
2022-12-25T23:20:57.309Z,338
2022-12-25T23:23:03.239Z,338
2022-12-25T23:25:08.680Z,338
2022-12-25T23:27:14.111Z,338
2022-12-25T23:29:19.513Z,338
2022-12-25T23:31:25.551Z,338
2022-12-25T23:33:31.472Z,338
2022-12-25T23:35:36.855Z,338
2022-12-25T23:37:42.415Z,338
2022-12-25T23:39:47.861Z,338
2022-12-25T23:41:53.175Z,338
2022-12-25T23:43:58.648Z,338
2022-12-25T23:46:04.699Z,338
2022-12-25T23:48:10.025Z,338
2022-12-25T23:50:15.294Z,338
2022-12-25T23:52:21.050Z,338
2022-12-25T23:54:26.573Z,338
2022-12-25T23:56:31.708Z,338
2022-12-25T23:58:37.206Z,338
